createdAt,value
2022-10-30T00:00:22.009Z,12.41
2022-10-30T00:03:24.888Z,12.48
2022-10-30T00:06:27.472Z,12.53
2022-10-30T00:09:30.300Z,12.42
2022-10-30T00:12:32.825Z,12.34
2022-10-30T00:15:35.997Z,12.27
2022-10-30T00:18:42.003Z,12.31
2022-10-30T00:21:44.778Z,12.35
2022-10-30T00:24:47.203Z,12.37
2022-10-30T00:27:50.025Z,12.51
2022-10-30T00:30:52.459Z,12.50
2022-10-30T00:33:55.522Z,12.37
2022-10-30T00:37:03.863Z,12.42
2022-10-30T00:40:07.994Z,12.36
2022-10-30T00:43:35.526Z,12.33
2022-10-30T00:46:40.929Z,12.41
2022-10-30T00:50:01.143Z,12.40
2022-10-30T00:53:09.966Z,12.32
2022-10-30T00:56:15.110Z,12.30
2022-10-30T00:59:24.387Z,12.34
2022-10-30T01:02:27.943Z,12.40
2022-10-30T01:05:32.831Z,12.31
2022-10-30T01:08:35.735Z,12.42
2022-10-30T01:11:38.604Z,12.36
2022-10-30T01:14:47.088Z,12.33
2022-10-30T01:18:08.923Z,12.26
2022-10-30T01:21:17.505Z,12.22
2022-10-30T01:24:58.324Z,12.20
2022-10-30T01:28:23.091Z,12.19
2022-10-30T01:31:46.747Z,12.29
2022-10-30T01:35:02.649Z,12.19
2022-10-30T01:38:24.835Z,12.15
2022-10-30T01:41:28.092Z,12.19
2022-10-30T01:44:33.431Z,12.34
2022-10-30T01:48:10.424Z,12.28
2022-10-30T01:51:29.927Z,12.32
2022-10-30T01:55:00.816Z,12.31
2022-10-30T01:58:15.971Z,12.35
2022-10-30T02:01:18.883Z,12.26
2022-10-30T02:04:23.465Z,12.25
2022-10-30T02:07:26.299Z,12.34
2022-10-30T02:10:31.349Z,12.16
2022-10-30T02:13:34.100Z,12.35
2022-10-30T02:16:42.947Z,12.25
2022-10-30T02:19:45.732Z,12.23
2022-10-30T02:22:51.763Z,12.11
2022-10-30T02:25:57.047Z,12.12
2022-10-30T02:29:02.109Z,12.08
2022-10-30T02:32:04.718Z,12.12
2022-10-30T02:35:09.222Z,12.07
2022-10-30T02:38:11.803Z,12.18
2022-10-30T02:41:14.656Z,12.14
2022-10-30T02:44:17.395Z,12.14
2022-10-30T02:47:22.342Z,12.09
2022-10-30T02:50:25.602Z,12.08
2022-10-30T02:53:28.637Z,12.08
2022-10-30T02:56:31.254Z,12.11
2022-10-30T02:59:35.377Z,12.05
2022-10-30T03:02:38.375Z,12.15
2022-10-30T03:05:41.100Z,12.12
2022-10-30T03:08:44.086Z,12.18
2022-10-30T03:11:47.260Z,12.14
2022-10-30T03:14:50.351Z,12.18
2022-10-30T03:17:53.209Z,12.23
2022-10-30T03:20:57.908Z,12.15
2022-10-30T03:24:00.761Z,12.10
2022-10-30T03:27:03.142Z,12.08
2022-10-30T03:30:06.731Z,12.07
2022-10-30T03:33:09.480Z,12.04
2022-10-30T03:36:14.227Z,12.04
2022-10-30T03:39:16.889Z,12.09
2022-10-30T03:42:19.706Z,12.17
2022-10-30T03:45:24.771Z,12.11
2022-10-30T03:48:29.718Z,12.00
2022-10-30T03:51:32.909Z,12.02
2022-10-30T03:54:35.633Z,12.01
2022-10-30T03:57:38.828Z,11.97
2022-10-30T04:00:48.013Z,11.97
2022-10-30T04:03:50.916Z,12.02
2022-10-30T04:06:53.514Z,12.06
2022-10-30T04:09:57.794Z,12.19
2022-10-30T04:13:05.397Z,12.01
2022-10-30T04:16:08.302Z,12.13
2022-10-30T04:19:10.740Z,11.99
2022-10-30T04:22:13.460Z,11.92
2022-10-30T04:25:15.965Z,11.96
2022-10-30T04:28:18.729Z,11.92
2022-10-30T04:31:22.353Z,11.88
2022-10-30T04:34:26.177Z,11.88
2022-10-30T04:37:28.811Z,11.93
2022-10-30T04:40:34.549Z,11.97
2022-10-30T04:43:37.418Z,12.06
2022-10-30T04:46:40.132Z,11.98
2022-10-30T04:49:42.842Z,11.94
2022-10-30T04:52:46.563Z,11.89
2022-10-30T04:55:53.648Z,11.92
2022-10-30T04:58:56.561Z,11.92
2022-10-30T05:01:59.375Z,11.87
2022-10-30T05:05:02.803Z,11.85
2022-10-30T05:08:05.586Z,11.87
2022-10-30T05:11:08.334Z,11.88
2022-10-30T05:14:11.348Z,11.77
2022-10-30T05:17:14.229Z,11.80
2022-10-30T05:20:18.961Z,11.81
2022-10-30T05:23:21.980Z,11.79
2022-10-30T05:26:24.528Z,11.83
2022-10-30T05:29:27.588Z,11.81
2022-10-30T05:32:30.095Z,11.85
2022-10-30T05:35:35.062Z,11.82
2022-10-30T05:38:38.580Z,11.94
2022-10-30T05:41:42.121Z,11.91
2022-10-30T05:45:00.397Z,11.91
2022-10-30T05:48:06.111Z,12.03
2022-10-30T05:51:08.995Z,12.14
2022-10-30T05:54:12.814Z,12.13
2022-10-30T05:57:16.858Z,12.03
2022-10-30T06:00:19.756Z,12.13
2022-10-30T06:03:23.033Z,12.02
2022-10-30T06:06:26.394Z,12.04
2022-10-30T06:09:29.157Z,12.10
2022-10-30T06:12:32.194Z,12.13
2022-10-30T06:15:35.386Z,12.19
2022-10-30T06:18:38.405Z,12.15
2022-10-30T06:21:41.340Z,12.24
2022-10-30T06:24:43.881Z,12.27
2022-10-30T06:27:47.145Z,12.26
2022-10-30T06:30:50.050Z,12.33
2022-10-30T06:33:52.828Z,12.32
2022-10-30T06:36:55.442Z,12.31
2022-10-30T06:39:58.534Z,12.36
2022-10-30T06:43:02.684Z,12.35
2022-10-30T06:49:14.596Z,12.39
2022-10-30T06:52:19.361Z,12.48
2022-10-30T06:55:22.049Z,12.47
2022-10-30T06:58:26.163Z,12.53
2022-10-30T07:01:28.745Z,12.53
2022-10-30T07:04:31.633Z,12.50
2022-10-30T07:07:34.730Z,12.54
2022-10-30T07:10:37.980Z,12.49
2022-10-30T07:13:41.647Z,12.54
2022-10-30T07:16:44.891Z,12.46
2022-10-30T07:19:48.160Z,12.47
2022-10-30T07:22:51.798Z,12.52
2022-10-30T07:25:57.248Z,12.61
2022-10-30T07:29:03.194Z,12.77
2022-10-30T07:32:06.026Z,12.68
2022-10-30T07:35:10.955Z,12.67
2022-10-30T07:38:17.720Z,12.74
2022-10-30T07:41:21.632Z,12.79
2022-10-30T07:44:24.300Z,12.85
2022-10-30T07:47:28.074Z,12.89
2022-10-30T07:50:32.247Z,12.98
2022-10-30T07:53:35.218Z,12.91
2022-10-30T07:56:38.908Z,12.91
2022-10-30T07:59:42.416Z,13.03
2022-10-30T08:02:51.808Z,13.05
2022-10-30T08:05:55.011Z,13.09
2022-10-30T08:08:58.257Z,13.27
2022-10-30T08:12:01.743Z,13.14
2022-10-30T08:15:04.684Z,13.21
2022-10-30T08:18:07.666Z,13.25
2022-10-30T08:21:11.675Z,13.37
2022-10-30T08:24:16.879Z,13.42
2022-10-30T08:27:20.072Z,13.34
2022-10-30T08:30:24.447Z,13.35
2022-10-30T08:33:29.218Z,13.29
2022-10-30T08:36:36.396Z,13.18
2022-10-30T08:39:38.969Z,13.23
2022-10-30T08:42:43.168Z,13.27
2022-10-30T08:45:45.791Z,13.35
2022-10-30T08:48:48.929Z,13.36
2022-10-30T08:51:51.915Z,13.40
2022-10-30T08:54:54.702Z,13.27
2022-10-30T08:58:00.100Z,13.34
2022-10-30T09:01:03.329Z,13.51
2022-10-30T09:04:10.960Z,13.56
2022-10-30T09:07:16.831Z,13.53
2022-10-30T09:10:19.747Z,13.66
2022-10-30T09:13:23.019Z,13.86
2022-10-30T09:16:25.495Z,13.84
2022-10-30T09:19:28.896Z,13.87
2022-10-30T09:22:32.182Z,14.14
2022-10-30T09:25:35.447Z,14.16
2022-10-30T09:28:38.325Z,14.42
2022-10-30T09:31:44.383Z,14.41
2022-10-30T09:34:49.341Z,14.64
2022-10-30T09:37:52.255Z,14.52
2022-10-30T09:41:28.025Z,14.52
2022-10-30T09:45:27.877Z,14.64
2022-10-30T09:48:42.313Z,14.49
2022-10-30T09:52:00.342Z,14.45
2022-10-30T09:55:15.043Z,14.70
2022-10-30T09:58:23.561Z,15.04
2022-10-30T10:01:29.892Z,15.00
2022-10-30T10:04:37.265Z,14.91
2022-10-30T10:07:46.855Z,15.25
2022-10-30T10:10:58.035Z,15.34
2022-10-30T10:14:14.745Z,15.36
2022-10-30T10:17:28.125Z,15.51
2022-10-30T10:20:36.761Z,15.61
2022-10-30T10:23:48.558Z,15.62
2022-10-30T10:27:00.983Z,15.75
2022-10-30T10:30:09.833Z,15.93
2022-10-30T10:33:40.159Z,16.00
2022-10-30T10:36:50.112Z,16.09
2022-10-30T10:39:55.240Z,16.17
2022-10-30T10:43:24.378Z,16.20
2022-10-30T10:47:07.120Z,16.19
2022-10-30T10:50:33.637Z,16.23
2022-10-30T10:53:48.304Z,16.06
2022-10-30T10:56:51.914Z,15.98
2022-10-30T11:00:03.163Z,15.97
2022-10-30T11:03:21.828Z,15.71
2022-10-30T11:06:31.885Z,15.59
2022-10-30T11:09:35.022Z,15.82
2022-10-30T11:12:37.657Z,15.77
2022-10-30T11:15:53.957Z,15.86
2022-10-30T11:19:02.279Z,16.00
2022-10-30T11:22:31.957Z,16.20
2022-10-30T11:25:36.562Z,16.23
2022-10-30T11:28:43.913Z,16.08
2022-10-30T11:31:47.170Z,15.99
2022-10-30T11:35:07.870Z,15.94
2022-10-30T11:38:19.625Z,16.16
2022-10-30T11:41:22.590Z,16.00
2022-10-30T11:44:32.620Z,15.88
2022-10-30T11:47:37.167Z,16.05
2022-10-30T11:50:48.025Z,15.92
2022-10-30T11:53:50.951Z,16.01
2022-10-30T11:56:54.291Z,16.09
2022-10-30T12:00:03.773Z,16.01
2022-10-30T12:03:46.496Z,16.04
2022-10-30T12:07:07.224Z,16.41
2022-10-30T12:10:24.999Z,16.50
2022-10-30T12:13:34.039Z,16.55
2022-10-30T12:16:36.482Z,16.73
2022-10-30T12:19:49.114Z,16.69
2022-10-30T12:22:51.719Z,16.74
2022-10-30T12:25:57.692Z,16.68
2022-10-30T12:29:04.443Z,16.52
2022-10-30T12:32:11.342Z,16.62
2022-10-30T12:35:45.636Z,16.58
2022-10-30T12:38:58.994Z,16.79
2022-10-30T12:42:09.017Z,16.89
2022-10-30T12:45:24.131Z,16.81
2022-10-30T12:49:08.356Z,16.79
2022-10-30T12:52:19.136Z,16.69
2022-10-30T12:55:25.589Z,16.66
2022-10-30T12:58:39.880Z,16.71
2022-10-30T13:01:51.337Z,16.55
2022-10-30T13:05:03.005Z,16.49
2022-10-30T13:08:25.347Z,16.39
2022-10-30T13:11:43.181Z,16.35
2022-10-30T13:14:51.781Z,16.41
2022-10-30T13:17:58.838Z,16.46
2022-10-30T13:21:06.335Z,16.41
2022-10-30T13:24:20.079Z,16.46
2022-10-30T13:27:41.010Z,16.53
2022-10-30T13:31:00.244Z,16.57
2022-10-30T13:34:43.581Z,16.72
2022-10-30T13:37:58.480Z,16.79
2022-10-30T13:41:09.758Z,16.69
2022-10-30T13:44:19.638Z,16.53
2022-10-30T13:47:44.828Z,16.24
2022-10-30T13:51:04.006Z,16.18
2022-10-30T13:54:28.106Z,16.14
2022-10-30T13:57:44.122Z,15.93
2022-10-30T14:00:46.520Z,15.88
2022-10-30T14:04:13.405Z,15.80
2022-10-30T14:07:21.890Z,15.79
2022-10-30T14:10:45.093Z,15.85
2022-10-30T14:14:03.411Z,15.82
2022-10-30T14:17:17.329Z,15.74
2022-10-30T14:20:19.718Z,15.69
2022-10-30T14:23:33.643Z,15.69
2022-10-30T14:26:36.236Z,15.70
2022-10-30T14:29:44.894Z,15.68
2022-10-30T14:32:51.919Z,15.70
2022-10-30T14:36:12.807Z,15.50
2022-10-30T14:39:15.218Z,15.47
2022-10-30T14:42:42.777Z,15.40
2022-10-30T14:45:52.732Z,15.39
2022-10-30T14:49:33.053Z,15.30
2022-10-30T14:53:01.289Z,15.20
2022-10-30T14:56:19.807Z,15.04
2022-10-30T14:59:33.383Z,14.89
2022-10-30T15:02:48.110Z,14.75
2022-10-30T15:06:12.157Z,14.67
2022-10-30T15:09:47.691Z,14.53
2022-10-30T15:13:23.046Z,14.38
2022-10-30T15:16:29.005Z,14.20
2022-10-30T15:19:34.575Z,14.09
2022-10-30T15:22:37.871Z,13.99
2022-10-30T15:25:50.528Z,13.86
2022-10-30T15:28:54.719Z,13.78
2022-10-30T15:32:05.544Z,13.69
2022-10-30T15:35:23.513Z,13.60
2022-10-30T15:38:26.703Z,13.55
2022-10-30T15:41:30.111Z,13.49
2022-10-30T15:44:36.501Z,13.47
2022-10-30T15:47:46.287Z,13.42
2022-10-30T15:51:03.314Z,13.40
2022-10-30T15:54:11.490Z,13.36
2022-10-30T16:00:57.251Z,13.29
2022-10-30T16:04:00.688Z,13.27
2022-10-30T16:07:23.761Z,13.27
2022-10-30T16:10:28.015Z,13.26
2022-10-30T16:13:31.677Z,13.19
2022-10-30T16:16:34.601Z,13.22
2022-10-30T16:19:50.450Z,13.22
2022-10-30T16:22:53.554Z,13.23
2022-10-30T16:25:58.366Z,13.35
2022-10-30T16:29:03.188Z,13.35
2022-10-30T16:35:23.532Z,13.30
2022-10-30T16:38:29.975Z,13.32
2022-10-30T16:41:33.352Z,13.26
2022-10-30T16:44:36.321Z,13.25
2022-10-30T16:47:43.121Z,13.25
2022-10-30T16:50:49.526Z,13.20
2022-10-30T16:53:53.038Z,13.19
2022-10-30T16:56:58.201Z,13.17
2022-10-30T17:00:01.991Z,13.16
2022-10-30T17:03:10.374Z,13.13
2022-10-30T17:06:50.631Z,13.09
2022-10-30T17:09:56.839Z,13.08
2022-10-30T17:13:36.888Z,13.06
2022-10-30T17:16:41.595Z,13.13
2022-10-30T17:19:49.531Z,13.08
2022-10-30T17:23:13.662Z,13.12
2022-10-30T17:26:18.593Z,13.05
2022-10-30T17:29:50.596Z,13.01
2022-10-30T17:33:03.907Z,13.00
2022-10-30T17:36:07.385Z,13.04
2022-10-30T17:39:11.717Z,12.99
2022-10-30T17:42:15.460Z,13.01
2022-10-30T17:45:18.764Z,12.98
2022-10-30T17:48:25.609Z,13.00
2022-10-30T17:51:29.375Z,13.06
2022-10-30T17:54:33.648Z,13.03
2022-10-30T17:57:36.565Z,13.06
2022-10-30T18:00:39.336Z,13.01
2022-10-30T18:03:42.376Z,12.96
2022-10-30T18:06:45.659Z,12.99
2022-10-30T18:09:49.020Z,13.03
2022-10-30T18:12:52.125Z,13.02
2022-10-30T18:15:58.041Z,12.92
2022-10-30T18:19:01.282Z,12.90
2022-10-30T18:22:04.350Z,12.86
2022-10-30T18:25:34.922Z,12.95
2022-10-30T18:28:37.972Z,12.99
2022-10-30T18:31:41.240Z,12.99
2022-10-30T18:34:44.223Z,12.96
2022-10-30T18:37:46.978Z,13.00
2022-10-30T18:40:50.810Z,13.03
2022-10-30T18:43:54.004Z,13.01
2022-10-30T18:47:03.260Z,13.01
2022-10-30T18:50:07.040Z,12.99
2022-10-30T18:53:17.763Z,13.00
2022-10-30T18:56:28.584Z,13.00
2022-10-30T18:59:31.610Z,12.95
2022-10-30T19:02:34.715Z,12.99
2022-10-30T19:05:47.253Z,13.01
2022-10-30T19:08:50.398Z,13.05
2022-10-30T19:11:53.557Z,12.99
2022-10-30T19:14:57.031Z,13.00
2022-10-30T19:18:01.853Z,13.00
2022-10-30T19:21:07.249Z,13.02
2022-10-30T19:24:15.142Z,12.97
2022-10-30T19:27:18.203Z,12.98
2022-10-30T19:30:21.929Z,13.09
2022-10-30T19:33:25.073Z,13.27
2022-10-30T19:36:36.338Z,13.14
2022-10-30T19:39:39.851Z,13.20
2022-10-30T19:42:43.261Z,13.05
2022-10-30T19:45:48.054Z,13.04
2022-10-30T19:48:58.165Z,13.02
2022-10-30T19:52:01.659Z,12.92
2022-10-30T19:55:05.022Z,12.91
2022-10-30T19:58:12.619Z,12.92
2022-10-30T20:01:16.219Z,12.95
2022-10-30T20:04:19.605Z,13.04
2022-10-30T20:07:23.329Z,12.99
2022-10-30T20:10:29.289Z,13.11
2022-10-30T20:13:33.488Z,12.94
2022-10-30T20:16:36.879Z,12.93
2022-10-30T20:19:41.569Z,12.88
2022-10-30T20:22:44.661Z,12.91
2022-10-30T20:25:50.037Z,12.89
2022-10-30T20:28:53.890Z,12.90
2022-10-30T20:31:56.631Z,12.79
2022-10-30T20:34:59.765Z,12.93
2022-10-30T20:38:03.269Z,12.91
2022-10-30T20:41:07.491Z,12.87
2022-10-30T20:44:12.794Z,12.87
2022-10-30T20:47:15.771Z,12.83
2022-10-30T20:50:19.988Z,12.88
2022-10-30T20:53:23.305Z,12.86
2022-10-30T20:56:26.189Z,12.78
2022-10-30T20:59:29.274Z,12.83
2022-10-30T21:02:32.121Z,12.81
2022-10-30T21:05:45.123Z,12.75
2022-10-30T21:08:48.466Z,12.73
2022-10-30T21:11:51.471Z,12.72
2022-10-30T21:14:53.982Z,12.77
2022-10-30T21:17:57.222Z,12.73
2022-10-30T21:21:04.748Z,12.72
2022-10-30T21:24:07.871Z,12.69
2022-10-30T21:27:10.392Z,12.67
2022-10-30T21:30:13.250Z,12.58
2022-10-30T21:33:15.678Z,12.59
2022-10-30T21:36:20.105Z,12.58
2022-10-30T21:39:22.551Z,12.47
2022-10-30T21:42:25.413Z,12.40
2022-10-30T21:45:27.922Z,12.43
2022-10-30T21:48:30.735Z,12.31
2022-10-30T21:51:33.538Z,12.24
2022-10-30T21:54:36.331Z,12.21
2022-10-30T21:57:38.756Z,12.19
2022-10-30T22:00:41.512Z,12.24
2022-10-30T22:03:44.558Z,12.32
2022-10-30T22:06:47.045Z,12.45
2022-10-30T22:09:49.781Z,12.30
2022-10-30T22:12:52.476Z,12.17
2022-10-30T22:15:55.454Z,12.18
2022-10-30T22:18:58.463Z,12.07
2022-10-30T22:22:01.161Z,12.05
2022-10-30T22:25:03.761Z,12.26
2022-10-30T22:28:06.672Z,12.27
2022-10-30T22:31:17.053Z,12.12
2022-10-30T22:34:21.950Z,12.13
2022-10-30T22:37:26.599Z,12.16
2022-10-30T22:40:29.396Z,11.99
2022-10-30T22:43:31.856Z,12.14
2022-10-30T22:46:34.706Z,12.08
2022-10-30T22:49:37.426Z,12.08
2022-10-30T22:52:40.178Z,12.11
2022-10-30T22:55:42.639Z,12.14
2022-10-30T22:58:47.549Z,12.12
2022-10-30T23:01:50.146Z,12.28
2022-10-30T23:04:52.941Z,12.20
2022-10-30T23:07:55.379Z,12.16
2022-10-30T23:10:58.546Z,12.16
2022-10-30T23:14:01.813Z,12.21
2022-10-30T23:17:04.581Z,12.17
2022-10-30T23:20:08.293Z,12.17
2022-10-30T23:23:11.583Z,12.19
2022-10-30T23:26:21.746Z,12.28
2022-10-30T23:29:24.568Z,12.19
2022-10-30T23:32:27.062Z,12.12
2022-10-30T23:35:29.812Z,12.08
2022-10-30T23:38:32.725Z,12.11
2022-10-30T23:41:35.741Z,12.13
2022-10-30T23:44:38.291Z,12.15
2022-10-30T23:47:42.736Z,12.09
2022-10-30T23:50:45.687Z,12.07
2022-10-30T23:53:48.737Z,12.16
2022-10-30T23:56:51.183Z,12.00
2022-10-30T23:59:53.868Z,12.09
